Time;durP1;ratioP1;P1;durP2;ratioP2;P2;SDS_P1;SDS_P2;PMS_P1;PMS_P2;Temp;Humidity;BMP_temperature;BMP_pressure;BME280_temperature;BME280_humidity;BME280_pressure;Samples;Min_cycle;Max_cycle;Signal;HPM_P1;HPM_P2
2023/04/06 00:01:22;;;;;;;19.80;13.00;;;1.40;99.90;;;;;;5094020;28;20246;-70
2023/04/06 00:03:47;;;;;;;18.60;12.20;;;1.40;99.90;;;;;;5092508;28;20177;-70
2023/04/06 00:06:13;;;;;;;19.90;13.80;;;1.40;99.90;;;;;;5093356;28;20574;-70
2023/04/06 00:08:39;;;;;;;19.23;13.93;;;1.40;99.90;;;;;;5093780;28;20173;-70
2023/04/06 00:11:05;;;;;;;17.43;13.50;;;1.40;99.90;;;;;;5093438;28;20692;-70
2023/04/06 00:13:31;;;;;;;20.27;13.90;;;1.30;99.90;;;;;;5093719;28;20169;-70
2023/04/06 00:15:56;;;;;;;20.17;13.67;;;1.40;99.90;;;;;;5092389;28;20181;-70
2023/04/06 00:18:23;;;;;;;19.50;13.77;;;1.40;99.90;;;;;;5097744;28;20176;-70
2023/04/06 00:20:50;;;;;;;17.93;13.57;;;1.40;99.90;;;;;;5097504;28;20200;-70
2023/04/06 00:23:16;;;;;;;18.57;14.03;;;1.30;99.90;;;;;;5095785;28;20195;-70
2023/04/06 00:25:42;;;;;;;17.90;14.07;;;1.20;99.90;;;;;;5097426;28;20259;-70
2023/04/06 00:28:08;;;;;;;15.77;13.53;;;1.10;99.90;;;;;;5097566;28;20180;-70
2023/04/06 00:30:34;;;;;;;22.00;14.13;;;1.00;99.90;;;;;;5097362;28;20228;-70
2023/04/06 00:33:00;;;;;;;19.53;13.53;;;1.00;99.90;;;;;;5095810;28;20173;-70
2023/04/06 00:35:26;;;;;;;23.70;14.83;;;1.00;99.90;;;;;;5095515;28;20212;-67
2023/04/06 00:37:52;;;;;;;20.13;14.67;;;1.10;99.90;;;;;;5097252;28;20176;-67
2023/04/06 00:40:18;;;;;;;18.77;13.90;;;1.00;99.90;;;;;;5096835;28;20197;-67
2023/04/06 00:42:44;;;;;;;20.17;14.30;;;1.00;99.90;;;;;;5096833;28;20178;-67
2023/04/06 00:45:10;;;;;;;21.50;14.67;;;1.10;99.90;;;;;;5097211;28;20522;-67
2023/04/06 00:47:36;;;;;;;16.67;13.73;;;1.00;99.90;;;;;;5096836;28;20173;-67
2023/04/06 00:50:02;;;;;;;17.67;13.77;;;0.80;99.90;;;;;;5095040;28;20208;-67
2023/04/06 00:52:28;;;;;;;22.43;13.57;;;0.70;99.90;;;;;;5095325;28;20192;-67
2023/04/06 00:54:54;;;;;;;16.33;12.40;;;0.60;99.90;;;;;;5096583;28;20170;-67
2023/04/06 00:57:20;;;;;;;16.47;14.03;;;0.50;99.90;;;;;;5096905;28;20640;-68
2023/04/06 00:59:47;;;;;;;17.57;13.30;;;0.40;99.90;;;;;;5096549;28;20169;-67
2023/04/06 01:02:12;;;;;;;17.43;13.23;;;0.40;99.90;;;;;;5096878;28;20196;-67
2023/04/06 01:04:38;;;;;;;20.60;13.67;;;0.40;99.90;;;;;;5096725;28;20173;-67
2023/04/06 01:07:04;;;;;;;16.60;12.83;;;0.30;99.90;;;;;;5095379;28;20173;-67
2023/04/06 01:09:30;;;;;;;20.33;13.93;;;0.30;99.90;;;;;;5096553;28;20660;-67
2023/04/06 01:11:57;;;;;;;18.73;13.40;;;0.40;99.90;;;;;;5096103;28;20615;-67
2023/04/06 01:14:24;;;;;;;17.50;12.93;;;0.40;99.90;;;;;;5096373;28;20165;-67
2023/04/06 01:16:50;;;;;;;17.63;13.23;;;0.50;99.90;;;;;;5096207;28;20172;-67
2023/04/06 01:19:16;;;;;;;17.00;13.10;;;0.40;99.90;;;;;;5094800;28;20188;-68
2023/04/06 01:21:42;;;;;;;17.00;13.23;;;0.50;99.90;;;;;;5094764;28;20201;-67
2023/04/06 01:24:08;;;;;;;19.70;13.53;;;0.40;99.90;;;;;;5096145;28;20192;-67
2023/04/06 01:26:35;;;;;;;19.77;13.87;;;0.30;99.90;;;;;;5095790;28;20165;-67
2023/04/06 01:29:02;;;;;;;18.17;13.60;;;0.30;99.90;;;;;;5093996;28;20234;-67
2023/04/06 01:31:28;;;;;;;17.37;13.73;;;0.30;99.90;;;;;;5095689;28;20796;-67
2023/04/06 01:33:55;;;;;;;17.73;12.90;;;0.40;99.90;;;;;;5094565;28;20174;-67
2023/04/06 01:36:21;;;;;;;16.10;13.57;;;0.30;99.90;;;;;;5095667;28;20177;-67
2023/04/06 01:38:47;;;;;;;20.53;14.10;;;0.30;99.90;;;;;;5095940;28;20260;-67
2023/04/06 01:41:13;;;;;;;21.33;14.47;;;0.40;99.90;;;;;;5094244;28;20228;-68
2023/04/06 01:43:39;;;;;;;18.40;13.83;;;0.30;99.90;;;;;;5096179;28;20215;-67
2023/04/06 01:46:05;;;;;;;17.60;13.63;;;0.20;99.90;;;;;;5095790;28;20173;-67
2023/04/06 01:48:31;;;;;;;19.37;14.80;;;0.30;99.90;;;;;;5095475;28;20248;-68
2023/04/06 01:50:57;;;;;;;29.23;15.70;;;0.30;99.90;;;;;;5095194;28;20287;-67
2023/04/06 01:53:22;;;;;;;24.17;14.13;;;0.40;99.90;;;;;;5094299;28;20259;-67
2023/04/06 01:55:48;;;;;;;22.23;14.83;;;0.40;99.90;;;;;;5094637;28;20177;-70
2023/04/06 01:58:14;;;;;;;18.00;13.77;;;0.20;99.90;;;;;;5095990;28;20646;-71
2023/04/06 02:00:40;;;;;;;16.73;12.67;;;0.20;99.90;;;;;;5095822;28;20193;-70
2023/04/06 02:03:06;;;;;;;17.07;13.63;;;0.20;99.90;;;;;;5094128;28;20247;-70
2023/04/06 02:05:37;;;;;;;24.87;14.07;;;0.10;99.90;;;;;;5094198;28;20181;-70
2023/04/06 02:08:05;;;;;;;17.93;13.03;;;0.10;99.90;;;;;;5095422;28;20157;-70
2023/04/06 02:10:31;;;;;;;20.07;12.60;;;0.10;99.90;;;;;;5095580;28;20691;-70
2023/04/06 02:12:57;;;;;;;19.03;14.27;;;0.00;99.90;;;;;;5095400;28;20678;-70
2023/04/06 02:15:23;;;;;;;20.27;12.97;;;0.00;99.90;;;;;;5094067;28;20173;-70
2023/04/06 02:17:50;;;;;;;15.33;12.17;;;0.10;99.90;;;;;;5094234;28;20606;-70
2023/04/06 02:20:17;;;;;;;17.77;12.97;;;0.10;99.90;;;;;;5097000;28;20280;-70
2023/04/06 02:22:43;;;;;;;20.23;13.77;;;0.00;99.90;;;;;;5097994;28;20177;-70
2023/04/06 02:25:08;;;;;;;16.33;12.87;;;0.00;99.90;;;;;;5098015;28;20537;-71
2023/04/06 02:27:35;;;;;;;15.93;12.67;;;0.00;99.90;;;;;;5096250;28;20180;-71
2023/04/06 02:30:05;;;;;;;18.87;13.27;;;0.10;99.90;;;;;;5094597;28;20204;-70
2023/04/06 02:32:31;;;;;;;17.40;13.23;;;0.10;99.90;;;;;;5094069;28;20180;-70
2023/04/06 02:34:56;;;;;;;16.33;13.83;;;0.20;99.90;;;;;;5094831;28;20173;-70
2023/04/06 02:37:23;;;;;;;18.50;13.70;;;0.30;99.90;;;;;;5095239;28;20232;-70
2023/04/06 02:39:50;;;;;;;17.83;13.90;;;0.20;99.90;;;;;;5093058;28;20181;-70
2023/04/06 02:42:16;;;;;;;16.30;13.17;;;0.20;99.90;;;;;;5094878;28;20531;-70
2023/04/06 02:44:42;;;;;;;17.27;12.70;;;0.10;99.90;;;;;;5093405;28;20196;-70
2023/04/06 02:47:08;;;;;;;15.90;12.67;;;0.00;99.90;;;;;;5093263;28;20208;-70
2023/04/06 02:49:34;;;;;;;16.33;13.53;;;0.00;99.90;;;;;;5092797;28;20587;-71
2023/04/06 02:52:00;;;;;;;20.27;13.83;;;0.00;99.90;;;;;;5092664;28;20719;-70
2023/04/06 02:54:26;;;;;;;18.50;14.10;;;0.00;99.90;;;;;;5094788;28;20260;-70
2023/04/06 02:56:52;;;;;;;19.53;15.10;;;-0.10;99.90;;;;;;5094983;28;20248;-70
2023/04/06 02:59:17;;;;;;;21.50;15.40;;;-0.10;99.90;;;;;;5094437;28;20191;-70
2023/04/06 03:01:43;;;;;;;23.13;16.10;;;0.00;99.90;;;;;;5094721;28;20185;-70
2023/04/06 03:04:09;;;;;;;21.50;14.20;;;0.00;99.90;;;;;;5093378;28;20181;-71
2023/04/06 03:06:35;;;;;;;19.67;13.93;;;0.00;99.90;;;;;;5094491;28;20177;-71
2023/04/06 03:09:02;;;;;;;21.77;15.57;;;0.00;99.90;;;;;;5094392;28;20203;-70
2023/04/06 03:11:27;;;;;;;22.27;16.13;;;0.00;99.90;;;;;;5094075;28;20284;-70
2023/04/06 03:13:53;;;;;;;21.33;15.37;;;0.00;99.90;;;;;;5093180;28;20197;-70
2023/04/06 03:16:19;;;;;;;21.20;15.80;;;0.00;99.90;;;;;;5092959;28;20649;-70
2023/04/06 03:18:46;;;;;;;21.10;15.97;;;-0.10;99.90;;;;;;5095080;28;20340;-70
2023/04/06 03:21:14;;;;;;;22.40;16.43;;;-0.20;99.90;;;;;;5093118;28;20592;-70
2023/04/06 03:23:40;;;;;;;23.50;16.87;;;-0.10;99.90;;;;;;5094559;28;20181;-70
2023/04/06 03:26:06;;;;;;;22.57;15.87;;;-0.10;99.90;;;;;;5094469;28;20187;-70
2023/04/06 03:28:32;;;;;;;22.90;17.20;;;-0.10;99.90;;;;;;5093320;28;20180;-68
2023/04/06 03:30:58;;;;;;;22.13;16.93;;;-0.10;99.90;;;;;;5093861;28;20232;-68
2023/04/06 03:33:26;;;;;;;23.43;16.37;;;-0.20;99.90;;;;;;5093799;28;20196;-69
2023/04/06 03:35:52;;;;;;;26.43;17.87;;;-0.20;99.90;;;;;;5094201;28;20172;-66
2023/04/06 03:38:18;;;;;;;24.70;17.23;;;-0.20;99.90;;;;;;5092950;28;20173;-65
2023/04/06 03:40:44;;;;;;;22.67;15.93;;;-0.20;99.90;;;;;;5092528;28;20211;-65
2023/04/06 03:43:10;;;;;;;26.10;18.30;;;-0.20;99.90;;;;;;5094073;28;20269;-66
2023/04/06 03:45:36;;;;;;;25.07;17.43;;;-0.30;99.90;;;;;;5093406;28;20176;-68
2023/04/06 03:48:02;;;;;;;29.93;17.87;;;-0.30;99.90;;;;;;5094520;28;20204;-68
2023/04/06 03:50:27;;;;;;;27.10;17.67;;;-0.50;99.90;;;;;;5093845;28;20205;-68
2023/04/06 03:52:53;;;;;;;24.00;17.90;;;-0.40;99.90;;;;;;5103716;28;20216;-68
2023/04/06 03:55:19;;;;;;;26.80;17.70;;;-0.40;99.90;;;;;;5118339;28;20178;-68
2023/04/06 03:57:45;;;;;;;25.43;19.53;;;-0.40;99.90;;;;;;5116812;28;20184;-69
2023/04/06 04:00:11;;;;;;;25.87;17.70;;;-0.60;99.90;;;;;;5118914;27;20160;-68
2023/04/06 04:02:37;;;;;;;28.90;18.00;;;-0.60;99.90;;;;;;5118228;28;20177;-68
2023/04/06 04:05:03;;;;;;;25.33;17.37;;;-0.60;99.90;;;;;;5118010;28;20201;-68
2023/04/06 04:07:29;;;;;;;25.73;17.97;;;-0.50;99.90;;;;;;5118511;28;20694;-68
2023/04/06 04:09:55;;;;;;;26.97;17.47;;;-0.50;99.90;;;;;;5118369;28;20179;-68
2023/04/06 04:12:21;;;;;;;29.23;18.20;;;-0.60;99.90;;;;;;5117763;28;20258;-68
2023/04/06 04:14:46;;;;;;;28.10;17.37;;;-0.60;99.90;;;;;;5118180;28;20255;-68
2023/04/06 04:17:12;;;;;;;26.47;17.33;;;-0.60;99.90;;;;;;5118732;28;20510;-68
2023/04/06 04:19:38;;;;;;;24.97;16.57;;;-0.60;99.90;;;;;;5117022;28;20180;-68
2023/04/06 04:22:07;;;;;;;21.50;16.03;;;-0.60;99.90;;;;;;5117763;28;20200;-68
2023/04/06 04:24:33;;;;;;;22.93;17.30;;;-0.60;99.90;;;;;;5097850;28;20181;-68
2023/04/06 04:27:00;;;;;;;27.43;18.27;;;-0.60;99.90;;;;;;5097412;28;20181;-68
2023/04/06 04:29:26;;;;;;;27.20;17.67;;;-0.60;99.90;;;;;;5096127;28;20676;-68
2023/04/06 04:31:52;;;;;;;26.33;17.23;;;-0.60;99.90;;;;;;5096092;28;20217;-68
2023/04/06 04:34:24;;;;;;;26.90;17.33;;;-0.60;99.90;;;;;;5097070;28;20614;-68
2023/04/06 04:36:51;;;;;;;24.93;16.77;;;-0.60;99.90;;;;;;5097602;28;20164;-68
2023/04/06 04:39:17;;;;;;;23.23;16.80;;;-0.60;99.90;;;;;;5095605;28;20228;-68
2023/04/06 04:41:42;;;;;;;23.90;16.83;;;-0.60;99.90;;;;;;5097297;28;20205;-68
2023/04/06 04:44:08;;;;;;;24.63;17.63;;;-0.60;99.90;;;;;;5097453;28;20177;-68
2023/04/06 04:46:34;;;;;;;27.23;17.97;;;-0.70;99.90;;;;;;5096356;28;20185;-68
2023/04/06 04:49:00;;;;;;;27.70;17.57;;;-0.70;99.90;;;;;;5097557;28;20177;-68
2023/04/06 04:51:26;;;;;;;24.83;17.50;;;-0.70;99.90;;;;;;5097246;28;20713;-68
2023/04/06 04:53:51;;;;;;;28.10;17.47;;;-0.70;99.90;;;;;;5096870;28;20555;-68
2023/04/06 04:56:17;;;;;;;24.80;17.50;;;-0.70;99.90;;;;;;5096852;28;20252;-66
2023/04/06 04:58:43;;;;;;;25.13;18.27;;;-0.70;99.90;;;;;;5095408;28;20575;-66
2023/04/06 05:01:10;;;;;;;23.27;17.30;;;-0.70;99.90;;;;;;5096144;28;20224;-66
2023/04/06 05:03:38;;;;;;;21.83;16.93;;;-0.70;99.90;;;;;;5095420;28;20230;-66
2023/04/06 05:06:04;;;;;;;22.77;17.23;;;-0.70;99.90;;;;;;5095534;28;20278;-66
2023/04/06 05:08:30;;;;;;;27.00;17.93;;;-0.70;99.90;;;;;;5095351;28;20188;-66
2023/04/06 05:10:56;;;;;;;31.67;18.47;;;-0.70;99.90;;;;;;5094902;28;20223;-66
2023/04/06 05:13:22;;;;;;;24.00;17.43;;;-0.80;99.90;;;;;;5096393;28;20169;-66
2023/04/06 05:15:48;;;;;;;23.23;17.10;;;-0.90;99.90;;;;;;5095869;28;20169;-66
2023/04/06 05:18:14;;;;;;;26.40;17.67;;;-0.90;99.90;;;;;;5096015;28;20173;-66
2023/04/06 05:20:40;;;;;;;25.70;17.30;;;-0.90;99.90;;;;;;5095689;28;20239;-66
2023/04/06 05:23:06;;;;;;;27.43;17.70;;;-0.90;99.90;;;;;;5095815;28;20273;-66
2023/04/06 05:25:32;;;;;;;30.67;19.00;;;-0.80;99.90;;;;;;5094491;28;20181;-66
2023/04/06 05:27:58;;;;;;;24.20;17.47;;;-0.80;99.90;;;;;;5094377;28;20201;-66
2023/04/06 05:30:24;;;;;;;24.27;17.57;;;-0.80;99.90;;;;;;5095531;28;20290;-66
2023/04/06 05:32:50;;;;;;;24.17;17.10;;;-0.80;99.90;;;;;;5095530;28;20207;-66
2023/04/06 05:35:17;;;;;;;23.07;17.40;;;-0.70;99.90;;;;;;5094023;28;20181;-66
2023/04/06 05:37:43;;;;;;;27.40;18.47;;;-0.60;99.90;;;;;;5094172;28;20181;-66
2023/04/06 05:40:09;;;;;;;28.53;17.73;;;-0.60;99.90;;;;;;5095260;28;20173;-66
2023/04/06 05:42:39;;;;;;;24.50;17.60;;;-0.50;99.90;;;;;;5094117;28;20187;-66
2023/04/06 05:45:09;;;;;;;23.60;17.00;;;-0.40;99.90;;;;;;5095439;28;20256;-66
2023/04/06 05:47:35;;;;;;;23.40;16.93;;;-0.30;99.90;;;;;;5094351;28;20188;-66
2023/04/06 05:50:00;;;;;;;30.23;17.27;;;-0.30;99.90;;;;;;5094812;28;20177;-66
2023/04/06 05:52:26;;;;;;;28.53;18.43;;;-0.10;99.90;;;;;;5093852;28;20188;-66
2023/04/06 05:54:52;;;;;;;26.97;18.37;;;0.00;99.90;;;;;;5095409;28;20158;-66
2023/04/06 05:57:18;;;;;;;26.47;18.50;;;0.00;99.90;;;;;;5093736;28;20192;-67
2023/04/06 05:59:44;;;;;;;25.93;18.53;;;0.10;99.90;;;;;;5095492;28;20158;-66
2023/04/06 06:02:10;;;;;;;27.43;18.13;;;0.10;99.90;;;;;;5093994;28;20572;-68
2023/04/06 06:04:36;;;;;;;25.57;18.13;;;0.20;99.90;;;;;;5095316;28;20181;-69
2023/04/06 06:07:02;;;;;;;26.17;18.40;;;0.30;99.90;;;;;;5095350;28;20173;-66
2023/04/06 06:09:28;;;;;;;27.77;19.40;;;0.40;99.90;;;;;;5093636;28;20181;-66
2023/04/06 06:11:53;;;;;;;25.70;18.60;;;0.50;99.90;;;;;;5093240;28;20220;-66
2023/04/06 06:14:19;;;;;;;27.33;18.20;;;0.60;99.90;;;;;;5094910;28;20201;-66
2023/04/06 06:16:45;;;;;;;25.47;18.33;;;0.80;99.90;;;;;;5093552;28;20226;-68
2023/04/06 06:19:11;;;;;;;34.07;18.70;;;0.80;99.90;;;;;;5094914;28;20168;-68
2023/04/06 06:21:37;;;;;;;25.60;17.83;;;0.90;99.90;;;;;;5093847;28;20201;-68
2023/04/06 06:24:03;;;;;;;26.87;18.40;;;1.00;99.90;;;;;;5093391;28;20189;-68
2023/04/06 06:26:31;;;;;;;24.17;17.97;;;1.00;99.90;;;;;;5094684;28;20189;-68
2023/04/06 06:29:01;;;;;;;24.40;19.03;;;1.20;99.90;;;;;;5093756;28;20603;-68
2023/04/06 06:31:30;;;;;;;25.30;19.20;;;1.30;99.90;;;;;;5093144;28;20272;-68
2023/04/06 06:33:59;;;;;;;28.30;17.87;;;1.30;99.90;;;;;;5094643;28;20185;-68
2023/04/06 06:36:30;;;;;;;29.13;19.77;;;1.30;99.90;;;;;;5077086;28;20272;-68
2023/04/06 06:39:00;;;;;;;26.70;19.33;;;1.40;99.90;;;;;;5093512;28;20661;-69
2023/04/06 06:41:30;;;;;;;26.40;18.47;;;1.60;99.90;;;;;;5094545;28;20254;-68
2023/04/06 06:44:00;;;;;;;28.80;19.40;;;1.70;99.90;;;;;;5094738;28;20238;-69
2023/04/06 06:46:27;;;;;;;27.37;19.90;;;1.80;99.90;;;;;;5093009;28;20272;-68
2023/04/06 06:48:53;;;;;;;26.03;17.87;;;2.00;99.90;;;;;;5094986;28;20173;-68
2023/04/06 06:51:22;;;;;;;26.30;17.60;;;2.10;99.90;;;;;;5092549;28;20307;-68
2023/04/06 06:53:58;;;;;;;22.97;17.70;;;2.30;99.90;;;;;;5094217;28;20192;-68
2023/04/06 06:56:30;;;;;;;23.23;17.33;;;2.40;99.90;;;;;;5094522;28;20177;-68
2023/04/06 06:58:56;;;;;;;25.70;17.27;;;2.60;99.90;;;;;;5093245;28;20222;-68
2023/04/06 07:01:24;;;;;;;26.93;18.40;;;2.70;99.90;;;;;;5076673;28;20213;-68
2023/04/06 07:04:01;;;;;;;25.47;19.40;;;2.90;99.90;;;;;;5092826;28;20186;-67
2023/04/06 07:06:32;;;;;;;24.47;17.00;;;3.10;99.90;;;;;;5094020;28;20562;-67
2023/04/06 07:09:02;;;;;;;30.87;18.17;;;3.30;99.90;;;;;;5076083;28;20197;-67
2023/04/06 07:11:32;;;;;;;25.47;16.93;;;3.40;99.90;;;;;;5092790;28;20217;-67
2023/04/06 07:13:57;;;;;;;23.13;17.50;;;3.60;99.90;;;;;;5077634;28;20165;-68
2023/04/06 07:16:23;;;;;;;17.80;15.00;;;3.70;99.90;;;;;;5093048;28;20184;-68
2023/04/06 07:18:50;;;;;;;22.83;15.53;;;3.80;99.90;;;;;;5094324;28;20606;-69
2023/04/06 07:21:15;;;;;;;19.23;14.53;;;3.90;99.90;;;;;;5094125;28;20193;-68
2023/04/06 07:23:41;;;;;;;21.20;16.60;;;4.00;99.90;;;;;;5093268;28;20195;-68
2023/04/06 07:26:07;;;;;;;17.23;14.17;;;4.20;99.90;;;;;;5094136;28;20180;-68
2023/04/06 07:28:33;;;;;;;18.33;13.60;;;4.30;99.90;;;;;;5094892;28;20165;-67
2023/04/06 07:31:00;;;;;;;18.47;14.80;;;4.40;99.90;;;;;;5094519;28;20716;-68
2023/04/06 07:33:29;;;;;;;18.63;13.97;;;4.50;99.90;;;;;;5095319;28;20307;-67
2023/04/06 07:35:56;;;;;;;24.97;14.50;;;4.80;99.90;;;;;;5095323;28;20173;-66
2023/04/06 07:38:22;;;;;;;18.37;14.50;;;5.00;99.90;;;;;;5094626;28;20196;-67
2023/04/06 07:40:48;;;;;;;16.80;15.00;;;5.30;99.90;;;;;;5094623;28;20674;-66
2023/04/06 07:43:15;;;;;;;25.23;15.70;;;5.50;99.90;;;;;;5092848;28;20170;-66
2023/04/06 07:45:41;;;;;;;17.37;12.20;;;5.80;99.90;;;;;;5094459;28;20201;-66
2023/04/06 07:48:07;;;;;;;13.73;11.73;;;5.90;99.90;;;;;;5093354;28;20188;-66
2023/04/06 07:50:33;;;;;;;13.63;11.53;;;5.90;99.90;;;;;;5096263;28;20258;-68
2023/04/06 07:52:59;;;;;;;14.73;11.40;;;6.10;99.90;;;;;;5095002;28;20260;-67
2023/04/06 07:55:25;;;;;;;16.63;12.97;;;6.40;99.90;;;;;;5094101;28;20182;-70
2023/04/06 07:57:51;;;;;;;12.20;10.27;;;6.70;99.90;;;;;;5094035;28;20195;-69
2023/04/06 08:00:17;;;;;;;11.37;10.10;;;6.90;99.90;;;;;;5093350;28;20201;-68
2023/04/06 08:02:43;;;;;;;15.37;11.43;;;7.20;99.90;;;;;;5092375;28;20556;-68
2023/04/06 08:05:09;;;;;;;15.60;10.50;;;7.30;99.90;;;;;;5092606;28;20181;-68
2023/04/06 08:07:38;;;;;;;16.80;11.17;;;7.60;99.90;;;;;;5093211;28;20318;-69
2023/04/06 08:10:04;;;;;;;13.03;10.17;;;7.60;99.90;;;;;;5097588;28;20185;-70
2023/04/06 08:12:30;;;;;;;12.73;10.47;;;7.80;99.90;;;;;;5095207;28;20169;-71
2023/04/06 08:14:56;;;;;;;13.70;10.67;;;7.90;99.90;;;;;;5094440;28;20761;-66
2023/04/06 08:17:22;;;;;;;13.80;10.07;;;8.00;99.90;;;;;;5093144;28;20181;-66
2023/04/06 08:19:48;;;;;;;13.53;10.40;;;7.90;99.90;;;;;;5092367;28;20268;-66
2023/04/06 08:22:14;;;;;;;12.60;9.90;;;8.10;99.90;;;;;;5090304;28;20258;-66
2023/04/06 08:24:40;;;;;;;13.00;10.10;;;8.70;99.90;;;;;;5074144;28;20205;-66
2023/04/06 08:27:05;;;;;;;13.73;9.50;;;10.20;99.90;;;;;;5073080;28;20272;-66
2023/04/06 08:29:31;;;;;;;11.85;9.75;;;11.70;99.90;;;;;;5072248;28;20174;-67
2023/04/06 08:31:57;;;;;;;12.63;9.38;;;13.20;99.90;;;;;;5071930;28;20304;-67
2023/04/06 08:34:23;;;;;;;12.48;10.05;;;14.10;99.90;;;;;;5073838;28;20237;-67
2023/04/06 08:36:50;;;;;;;12.27;10.00;;;14.70;99.90;;;;;;5073024;28;20166;-67
2023/04/06 08:39:15;;;;;;;11.68;9.80;;;15.30;99.90;;;;;;5075514;28;20227;-67
2023/04/06 08:41:43;;;;;;;12.88;9.48;;;15.20;99.90;;;;;;5075249;28;20662;-67
2023/04/06 08:44:09;;;;;;;12.27;9.68;;;14.60;99.90;;;;;;5076342;28;20173;-66
2023/04/06 08:46:35;;;;;;;14.60;9.15;;;15.00;99.90;;;;;;5076546;28;20645;-67
2023/04/06 08:49:03;;;;;;;12.02;9.27;;;15.20;99.90;;;;;;5076295;28;20174;-67
2023/04/06 08:51:32;;;;;;;12.55;8.80;;;15.20;98.50;;;;;;5075167;28;20262;-67
2023/04/06 08:53:59;;;;;;;14.45;9.50;;;14.90;99.90;;;;;;5091735;28;20188;-67
2023/04/06 08:56:27;;;;;;;13.55;9.05;;;15.70;98.20;;;;;;5097225;28;20573;-67
2023/04/06 08:58:54;;;;;;;11.88;9.30;;;15.60;95.20;;;;;;5096385;28;20189;-66
2023/04/06 09:01:43;;;;;;;12.55;9.82;;;15.00;94.20;;;;;;5096502;28;20262;-66
2023/04/06 09:04:10;;;;;;;13.88;9.65;;;14.60;94.50;;;;;;5096359;28;20154;-66
2023/04/06 09:06:37;;;;;;;12.38;9.75;;;15.10;94.80;;;;;;5096620;28;20193;-66
2023/04/06 09:09:03;;;;;;;13.48;9.15;;;15.20;93.50;;;;;;5096357;28;20180;-66
2023/04/06 09:11:29;;;;;;;11.50;9.25;;;15.30;92.60;;;;;;5096150;28;20232;-67
2023/04/06 09:13:57;;;;;;;13.10;9.18;;;16.10;93.70;;;;;;5095441;28;20173;-67
2023/04/06 09:16:23;;;;;;;12.10;9.43;;;16.90;93.90;;;;;;5094808;28;20545;-67
2023/04/06 09:18:49;;;;;;;14.10;9.25;;;16.90;91.40;;;;;;5096091;28;20165;-67
2023/04/06 09:21:19;;;;;;;13.57;9.45;;;16.70;92.30;;;;;;5095952;28;20193;-69
2023/04/06 09:23:45;;;;;;;12.38;9.13;;;17.20;91.90;;;;;;5096170;28;20188;-70
2023/04/06 09:26:13;;;;;;;14.15;11.55;;;16.60;91.20;;;;;;5096436;28;20545;-69
2023/04/06 09:28:53;;;;;;;15.38;10.98;;;15.50;90.00;;;;;;5096463;28;20530;-69
2023/04/06 09:31:23;;;;;;;14.07;10.30;;;14.50;90.40;;;;;;5095837;28;20200;-69
2023/04/06 09:33:49;;;;;;;13.27;9.82;;;14.50;91.60;;;;;;5096319;28;20702;-69
2023/04/06 09:36:15;;;;;;;11.45;8.82;;;14.70;92.70;;;;;;5095800;28;20173;-70
2023/04/06 09:39:02;;;;;;;12.73;9.38;;;15.40;93.30;;;;;;5096057;28;20165;-68
2023/04/06 09:41:30;;;;;;;14.30;10.75;;;15.90;91.60;;;;;;5096247;28;20276;-68
2023/04/06 09:44:10;;;;;;;15.57;11.15;;;15.70;90.40;;;;;;5097521;28;20165;-70
2023/04/06 09:46:38;;;;;;;13.35;9.88;;;14.80;89.70;;;;;;5095522;28;20633;-70
2023/04/06 09:49:06;;;;;;;15.27;11.23;;;13.90;89.70;;;;;;5093980;28;20226;-69
2023/04/06 09:51:39;;;;;;;14.52;11.10;;;13.20;90.40;;;;;;5094888;28;20204;-69
2023/04/06 09:54:06;;;;;;;15.82;10.75;;;12.60;90.00;;;;;;5095173;28;20177;-68
2023/04/06 09:56:44;;;;;;;16.35;10.48;;;12.20;90.80;;;;;;5093863;28;20184;-68
2023/04/06 09:59:19;;;;;;;13.65;10.68;;;12.20;91.90;;;;;;5094991;28;20268;-68
2023/04/06 10:01:48;;;;;;;15.60;10.48;;;12.00;92.50;;;;;;5095919;28;20242;-68
2023/04/06 10:04:23;;;;;;;16.20;11.00;;;12.10;91.50;;;;;;5094451;28;20177;-68
2023/04/06 10:06:52;;;;;;;18.10;11.75;;;12.20;92.30;;;;;;5095694;28;20278;-68
2023/04/06 10:09:22;;;;;;;17.08;11.00;;;12.30;92.50;;;;;;5094117;28;20208;-67
2023/04/06 10:11:50;;;;;;;16.13;10.63;;;12.30;92.10;;;;;;5093839;28;20201;-69
2023/04/06 10:14:16;;;;;;;18.17;12.00;;;12.50;92.00;;;;;;5095249;28;20526;-69
2023/04/06 10:16:42;;;;;;;17.23;12.10;;;12.40;91.60;;;;;;5095305;28;20154;-69
2023/04/06 10:19:24;;;;;;;16.77;11.93;;;12.10;90.90;;;;;;5095097;28;20169;-68
2023/04/06 10:21:54;;;;;;;20.83;13.02;;;12.10;91.30;;;;;;5093231;28;20238;-68
2023/04/06 10:24:20;;;;;;;21.58;14.07;;;12.20;92.00;;;;;;5094610;28;20181;-68
2023/04/06 10:27:15;;;;;;;21.48;14.35;;;12.30;91.70;;;;;;5094554;28;20180;-68
2023/04/06 10:29:47;;;;;;;19.65;13.95;;;12.20;91.40;;;;;;5084516;28;20250;-68
2023/04/06 10:32:13;;;;;;;20.13;14.90;;;12.20;92.10;;;;;;5094472;28;20201;-68
2023/04/06 10:34:39;;;;;;;22.17;15.00;;;12.20;91.70;;;;;;5094556;28;20664;-68
2023/04/06 10:37:15;;;;;;;26.83;15.20;;;12.20;91.70;;;;;;5094634;28;20606;-69
2023/04/06 10:39:54;;;;;;;31.67;16.00;;;12.50;93.70;;;;;;5094478;28;20211;-68
2023/04/06 10:42:25;;;;;;;25.20;14.20;;;12.50;92.90;;;;;;5094754;28;20153;-69
2023/04/06 10:44:50;;;;;;;24.02;14.75;;;12.50;92.20;;;;;;5094276;28;20153;-68
2023/04/06 10:47:17;;;;;;;23.10;14.25;;;12.40;91.80;;;;;;5094866;28;20529;-68
2023/04/06 10:49:43;;;;;;;28.75;16.13;;;12.30;92.20;;;;;;5093072;28;20169;-68
2023/04/06 10:52:09;;;;;;;24.55;14.75;;;12.40;92.30;;;;;;5094325;28;20200;-68
2023/04/06 10:54:42;;;;;;;24.48;15.82;;;12.50;92.70;;;;;;5093493;28;20216;-68
2023/04/06 10:57:08;;;;;;;26.38;15.57;;;12.50;92.00;;;;;;5094819;28;20153;-68
2023/04/06 10:59:34;;;;;;;24.58;16.10;;;12.50;92.10;;;;;;5094860;28;20242;-69
2023/04/06 11:02:00;;;;;;;24.20;15.15;;;12.50;92.50;;;;;;5092239;28;20197;-68
2023/04/06 11:04:26;;;;;;;23.30;15.03;;;12.40;92.20;;;;;;5093213;28;20180;-68
2023/04/06 11:06:51;;;;;;;24.40;14.27;;;12.30;91.70;;;;;;5094332;28;20195;-68
2023/04/06 11:09:28;;;;;;;19.55;14.52;;;12.50;92.10;;;;;;5094310;28;20256;-68
2023/04/06 11:11:55;;;;;;;24.30;14.70;;;12.60;91.90;;;;;;5094142;28;20249;-68
2023/04/06 11:14:21;;;;;;;20.65;14.73;;;12.50;91.80;;;;;;5093032;28;20177;-69
2023/04/06 11:16:51;;;;;;;23.40;15.40;;;12.70;92.10;;;;;;5094459;28;20579;-69
2023/04/06 11:19:17;;;;;;;21.33;15.00;;;12.80;92.50;;;;;;5095813;28;20257;-69
2023/04/06 11:21:47;;;;;;;23.20;15.45;;;13.00;92.40;;;;;;5093735;28;20196;-69
2023/04/06 11:24:33;;;;;;;23.52;15.88;;;13.00;92.30;;;;;;5092437;28;20211;-69
2023/04/06 11:27:00;;;;;;;29.95;16.83;;;13.00;92.10;;;;;;5093914;28;20165;-69
2023/04/06 11:29:31;;;;;;;23.05;15.68;;;12.90;92.40;;;;;;5094280;28;20173;-69
2023/04/06 11:32:02;;;;;;;23.48;15.15;;;13.40;93.10;;;;;;5092248;28;20258;-69
2023/04/06 11:34:30;;;;;;;24.83;15.90;;;13.70;93.00;;;;;;5092475;28;20591;-69
2023/04/06 11:36:58;;;;;;;20.92;15.10;;;13.80;91.80;;;;;;5092386;28;20630;-69
2023/04/06 11:39:26;;;;;;;19.13;13.50;;;13.90;91.10;;;;;;5093875;28;20546;-69
2023/04/06 11:41:57;;;;;;;18.48;14.40;;;13.80;90.20;;;;;;5093937;28;20204;-69
2023/04/06 11:44:45;;;;;;;22.05;14.13;;;13.60;91.00;;;;;;5093817;28;20195;-69
2023/04/06 11:47:12;;;;;;;21.67;15.00;;;13.40;90.90;;;;;;5094187;28;20157;-69
2023/04/06 11:49:40;;;;;;;20.52;14.48;;;13.40;91.10;;;;;;5092349;28;20173;-69
2023/04/06 11:52:22;;;;;;;22.42;13.60;;;13.30;91.40;;;;;;5093379;28;20218;-69
2023/04/06 11:54:50;;;;;;;21.75;14.23;;;13.20;91.10;;;;;;5092594;28;20227;-69
2023/04/06 11:57:17;;;;;;;21.35;14.18;;;13.00;91.00;;;;;;5092557;28;20200;-69
2023/04/06 11:59:43;;;;;;;23.45;14.00;;;13.10;91.20;;;;;;5092720;28;20263;-69
2023/04/06 12:02:10;;;;;;;21.23;14.18;;;13.30;91.90;;;;;;5092201;28;20197;-69
2023/04/06 12:04:36;;;;;;;23.13;15.57;;;13.30;91.60;;;;;;5093488;28;20171;-69
2023/04/06 12:07:03;;;;;;;26.08;16.38;;;13.10;91.50;;;;;;5093289;28;20177;-69
2023/04/06 12:09:30;;;;;;;29.30;18.45;;;13.00;92.10;;;;;;5092469;28;20177;-69
2023/04/06 12:11:55;;;;;;;25.45;17.15;;;13.00;92.50;;;;;;5092100;28;20205;-69
2023/04/06 12:14:22;;;;;;;25.83;17.90;;;13.10;92.40;;;;;;5095986;28;20656;-69
2023/04/06 12:16:48;;;;;;;24.77;17.20;;;13.20;92.80;;;;;;5097325;28;20188;-69
2023/04/06 12:19:14;;;;;;;23.25;17.00;;;13.00;92.50;;;;;;5095858;28;20230;-69
2023/04/06 12:21:40;;;;;;;23.52;16.40;;;13.00;92.60;;;;;;5095858;28;20280;-69
2023/04/06 12:24:06;;;;;;;23.08;16.60;;;13.00;92.90;;;;;;5095828;28;20191;-69
2023/04/06 12:26:33;;;;;;;26.00;15.65;;;13.10;93.30;;;;;;5097287;28;20180;-69
2023/04/06 12:29:06;;;;;;;23.63;15.65;;;13.10;93.20;;;;;;5096953;28;20260;-69
2023/04/06 12:31:34;;;;;;;24.27;14.95;;;13.10;93.00;;;;;;5095757;28;20209;-69
2023/04/06 12:34:01;;;;;;;23.60;14.52;;;13.30;94.20;;;;;;5097126;28;20157;-69